createdAt,value
2022-12-11T00:00:01.767Z,22.65
2022-12-11T00:05:03.283Z,22.48
2022-12-11T00:10:05.408Z,21.77
2022-12-11T00:15:07.368Z,23.23
2022-12-11T00:20:09.370Z,21.10
2022-12-11T00:25:11.199Z,20.27
2022-12-11T00:30:13.710Z,21.67
2022-12-11T00:35:15.171Z,22.95
2022-12-11T00:40:16.641Z,23.20
2022-12-11T00:45:18.092Z,21.63
2022-12-11T00:50:19.555Z,20.98
2022-12-11T00:55:21.042Z,22.10
2022-12-11T01:00:22.899Z,22.52
2022-12-11T01:05:24.368Z,22.98
2022-12-11T01:10:25.925Z,22.10
2022-12-11T01:15:29.171Z,21.38
2022-12-11T01:20:30.647Z,23.65
2022-12-11T01:25:33.297Z,22.25
2022-12-11T01:30:34.912Z,21.98
2022-12-11T01:35:36.386Z,23.65
2022-12-11T01:40:37.854Z,24.17
2022-12-11T01:45:40.799Z,25.48
2022-12-11T01:50:56.372Z,24.95
2022-12-11T01:55:57.849Z,24.30
2022-12-11T02:00:59.390Z,24.20
2022-12-11T02:06:01.558Z,26.58
2022-12-11T02:11:15.019Z,25.77
2022-12-11T02:16:29.262Z,25.45
2022-12-11T02:21:34.791Z,26.80
2022-12-11T02:27:18.390Z,25.05
2022-12-11T02:32:23.484Z,22.65
2022-12-11T02:37:25.496Z,23.15
2022-12-11T02:42:29.923Z,25.40
2022-12-11T02:47:32.016Z,25.98
2022-12-11T02:52:33.500Z,23.20
2022-12-11T02:57:44.563Z,24.83
2022-12-11T03:02:46.090Z,24.90
2022-12-11T03:07:47.689Z,24.33
2022-12-11T03:12:53.594Z,23.25
2022-12-11T03:18:06.397Z,22.35
2022-12-11T03:23:34.613Z,22.80
2022-12-11T03:28:46.093Z,21.30
2022-12-11T03:33:47.843Z,22.13
2022-12-11T03:38:51.757Z,19.92
2022-12-11T03:43:54.312Z,23.77
2022-12-11T03:48:57.077Z,21.40
2022-12-11T03:53:58.557Z,22.17
2022-12-11T03:59:00.249Z,21.02
2022-12-11T04:04:01.755Z,21.27
2022-12-11T04:09:03.431Z,21.10
2022-12-11T04:14:25.755Z,21.75
2022-12-11T04:19:45.775Z,23.30
2022-12-11T04:24:49.093Z,21.05
2022-12-11T04:29:50.543Z,20.55
2022-12-11T04:34:51.995Z,21.00
2022-12-11T04:39:53.451Z,21.25
2022-12-11T04:44:54.913Z,19.75
2022-12-11T04:49:56.375Z,20.35
2022-12-11T04:54:57.855Z,18.83
2022-12-11T04:59:59.926Z,21.27
2022-12-11T05:05:01.575Z,18.85
2022-12-11T05:10:03.021Z,20.65
2022-12-11T05:15:04.633Z,19.67
2022-12-11T05:20:06.697Z,17.95
2022-12-11T05:25:08.281Z,18.88
2022-12-11T05:30:10.365Z,19.38
2022-12-11T05:35:12.163Z,18.63
2022-12-11T05:40:14.779Z,18.48
2022-12-11T05:45:16.246Z,17.88
2022-12-11T05:50:17.717Z,17.67
2022-12-11T05:55:19.172Z,15.48
2022-12-11T06:00:20.672Z,16.23
2022-12-11T06:05:22.137Z,17.23
2022-12-11T06:10:23.593Z,17.63
2022-12-11T06:15:25.060Z,16.00
2022-12-11T06:20:26.516Z,14.80
2022-12-11T06:25:28.611Z,15.85
2022-12-11T06:30:38.997Z,16.48
2022-12-11T06:35:42.444Z,13.77
2022-12-11T06:40:44.272Z,14.63
2022-12-11T06:45:45.796Z,15.07
2022-12-11T06:50:47.259Z,15.80
2022-12-11T06:55:48.718Z,14.73
2022-12-11T07:00:50.381Z,15.70
2022-12-11T07:05:51.869Z,13.90
2022-12-11T07:10:53.324Z,16.58
2022-12-11T07:15:54.993Z,13.07
2022-12-11T07:20:59.240Z,14.18
2022-12-11T07:26:07.204Z,16.15
2022-12-11T07:31:09.681Z,15.07
2022-12-11T07:36:12.044Z,17.00
2022-12-11T07:41:13.875Z,17.10
2022-12-11T07:46:17.340Z,15.98
2022-12-11T07:56:21.275Z,15.52
2022-12-11T08:01:24.286Z,13.55
2022-12-11T08:06:30.624Z,15.13
2022-12-11T08:11:32.076Z,14.38
2022-12-11T08:16:33.625Z,12.15
2022-12-11T08:21:35.132Z,14.05
2022-12-11T08:26:36.589Z,14.85
2022-12-11T08:31:39.307Z,14.45
2022-12-11T08:36:40.790Z,14.68
2022-12-11T08:41:42.247Z,13.02
2022-12-11T08:46:43.711Z,14.30
2022-12-11T08:51:45.172Z,13.20
2022-12-11T08:56:46.646Z,12.82
2022-12-11T09:01:48.147Z,14.13
2022-12-11T09:06:49.651Z,12.93
2022-12-11T09:11:51.110Z,11.20
2022-12-11T09:16:52.585Z,11.60
2022-12-11T09:21:54.037Z,10.68
2022-12-11T09:26:55.534Z,10.57
2022-12-11T09:31:57.008Z,8.38
2022-12-11T09:36:59.452Z,8.98
2022-12-11T09:42:19.592Z,9.02
2022-12-11T09:47:40.948Z,10.02
2022-12-11T09:53:12.503Z,7.70
2022-12-11T09:58:21.039Z,8.65
2022-12-11T10:03:56.716Z,7.50
2022-12-11T10:14:20.477Z,5.75
2022-12-11T10:19:24.565Z,6.35
2022-12-11T10:25:09.991Z,6.07
2022-12-11T10:30:14.648Z,5.90
2022-12-11T10:35:25.475Z,6.50
2022-12-11T10:40:26.928Z,6.30
2022-12-11T10:45:28.379Z,5.93
2022-12-11T10:50:29.836Z,5.63
2022-12-11T10:55:38.547Z,8.45
2022-12-11T11:00:40.588Z,6.85
2022-12-11T11:05:47.773Z,8.38
2022-12-11T11:10:55.693Z,7.47
2022-12-11T11:16:09.740Z,7.57
2022-12-11T11:21:18.281Z,8.25
2022-12-11T11:26:20.404Z,7.57
2022-12-11T11:31:31.988Z,8.02
2022-12-11T11:36:35.365Z,7.82
2022-12-11T11:41:50.598Z,7.90
2022-12-11T11:47:00.654Z,8.25
2022-12-11T11:52:16.089Z,8.00
2022-12-11T11:57:27.392Z,7.97
2022-12-11T12:02:28.901Z,8.05
2022-12-11T12:07:38.518Z,6.45
2022-12-11T12:13:44.425Z,6.18
2022-12-11T12:19:23.069Z,5.90
2022-12-11T12:24:35.835Z,5.30
2022-12-11T12:30:22.450Z,6.53
2022-12-11T12:35:35.913Z,6.13
2022-12-11T12:40:59.184Z,5.97
2022-12-11T12:46:07.173Z,5.90
2022-12-11T12:51:09.530Z,6.38
2022-12-11T12:56:11.750Z,6.63
2022-12-11T13:01:13.113Z,6.82
2022-12-11T13:06:14.669Z,7.28
2022-12-11T13:11:17.733Z,5.82
2022-12-11T13:16:19.052Z,7.22
2022-12-11T13:21:29.469Z,6.90
2022-12-11T13:26:32.708Z,6.65
2022-12-11T13:31:36.156Z,5.78
2022-12-11T13:41:39.159Z,7.60
2022-12-11T13:46:40.895Z,6.40
2022-12-11T13:51:51.624Z,7.55
2022-12-11T13:56:59.953Z,7.78
2022-12-11T14:02:05.391Z,6.95
2022-12-11T14:07:07.974Z,7.50
2022-12-11T14:12:19.901Z,7.13
2022-12-11T14:17:28.646Z,7.22
2022-12-11T14:22:30.142Z,6.88
2022-12-11T14:27:31.647Z,8.05
2022-12-11T14:32:35.956Z,7.43
2022-12-11T14:37:37.453Z,7.95
2022-12-11T14:42:41.047Z,8.77
2022-12-11T14:47:42.968Z,7.82
2022-12-11T14:52:47.293Z,8.32
2022-12-11T14:57:49.868Z,8.02
2022-12-11T15:03:07.269Z,8.25
2022-12-11T15:08:11.847Z,7.97
2022-12-11T15:13:16.632Z,8.25
2022-12-11T15:18:27.140Z,7.72
2022-12-11T15:23:28.986Z,8.93
2022-12-11T15:28:37.192Z,7.28
2022-12-11T15:33:46.539Z,7.80
2022-12-11T15:38:48.028Z,7.32
2022-12-11T15:43:53.940Z,7.18
2022-12-11T15:48:58.267Z,6.72
2022-12-11T15:53:59.763Z,6.05
2022-12-11T15:59:03.289Z,6.43
2022-12-11T16:09:07.009Z,5.80
2022-12-11T16:14:08.459Z,5.90
2022-12-11T16:19:09.916Z,6.63
2022-12-11T16:24:11.396Z,6.15
2022-12-11T16:29:12.869Z,5.43
2022-12-11T16:34:14.336Z,5.78
2022-12-11T16:39:15.791Z,4.97
2022-12-11T16:44:21.104Z,5.47
2022-12-11T16:49:22.664Z,4.72
2022-12-11T16:54:24.126Z,5.30
2022-12-11T16:59:25.598Z,5.50
2022-12-11T17:04:28.560Z,4.88
2022-12-11T17:09:30.035Z,5.20
2022-12-11T17:14:31.522Z,5.65
2022-12-11T17:19:33.152Z,5.75
2022-12-11T17:24:34.677Z,4.90
2022-12-11T17:29:36.228Z,4.53
2022-12-11T17:34:38.664Z,4.32
2022-12-11T17:39:40.329Z,5.05
2022-12-11T17:44:41.900Z,5.22
2022-12-11T17:49:43.399Z,4.95
2022-12-11T17:54:44.883Z,4.65
2022-12-11T17:59:46.417Z,5.35
2022-12-11T18:04:49.172Z,5.72
2022-12-11T18:09:50.639Z,4.82
2022-12-11T18:14:52.177Z,4.55
2022-12-11T18:19:53.709Z,4.50
2022-12-11T18:24:58.170Z,5.22
2022-12-11T18:29:59.756Z,4.47
2022-12-11T21:50:12.387Z,6.32
2022-12-11T21:55:14.146Z,7.03
2022-12-11T22:00:15.970Z,6.32
2022-12-11T22:05:17.440Z,7.03
2022-12-11T22:10:18.928Z,7.18
2022-12-11T22:15:20.432Z,7.05
2022-12-11T22:20:21.892Z,6.88
2022-12-11T22:25:23.361Z,8.25
2022-12-11T22:30:24.811Z,7.32
2022-12-11T22:35:27.490Z,8.65
2022-12-11T22:40:29.551Z,9.93
2022-12-11T22:45:31.053Z,9.70
2022-12-11T22:50:32.548Z,10.65
2022-12-11T22:55:34.101Z,9.63
2022-12-11T23:00:35.568Z,9.20
2022-12-11T23:05:39.615Z,9.57
2022-12-11T23:10:41.310Z,9.32
2022-12-11T23:15:42.820Z,8.75
2022-12-11T23:20:44.302Z,10.15
2022-12-11T23:25:45.778Z,9.05
2022-12-11T23:30:47.306Z,8.65
2022-12-11T23:35:48.805Z,7.70
2022-12-11T23:40:50.285Z,9.70
2022-12-11T23:45:51.768Z,8.07
2022-12-11T23:50:58.330Z,9.18
2022-12-11T23:56:07.224Z,8.75
